Terminal Aerodrome Forecast
Issued by NWS Tuscon, AZ

Home | Current Version | Previous Version | Text Only | Print | Product List | Glossary On
Versions: 1 2 3 4 5 6 7 8 9 10 11 12
449
FTUS45 KTWC 201732
TAFDUG
TAF
KDUG 201732Z 2018/2118 19012G20KT P6SM SKC
     FM202000 23018G27KT P6SM SCT250
     FM210300 21010KT P6SM SCT250
     FM211000 28008KT P6SM SCT250=

USA.gov is the U.S. government's official web portal to all federal, state and local government web resources and services.